sensor_id;sensor_type;location;lat;lon;timestamp;temperature;humidity
9385;DHT22;4732;49.340;10.886;2023-05-02T12:29:42;18.40;99.90
9385;DHT22;4732;49.340;10.886;2023-05-02T12:32:09;18.60;99.90
9385;DHT22;4732;49.340;10.886;2023-05-02T12:34:35;18.50;99.90
9385;DHT22;4732;49.340;10.886;2023-05-02T12:37:01;18.30;99.90
9385;DHT22;4732;49.340;10.886;2023-05-02T12:39:38;18.00;99.90
9385;DHT22;4732;49.340;10.886;2023-05-02T12:42:15;17.90;99.90
9385;DHT22;4732;49.340;10.886;2023-05-02T12:44:43;18.10;99.90
9385;DHT22;4732;49.340;10.886;2023-05-02T12:47:11;18.20;99.90
9385;DHT22;4732;49.340;10.886;2023-05-02T12:50:06;18.20;99.90
9385;DHT22;4732;49.340;10.886;2023-05-02T12:52:49;17.70;99.90
9385;DHT22;4732;49.340;10.886;2023-05-02T14:20:41;17.90;99.90
9385;DHT22;4732;49.340;10.886;2023-05-02T14:23:06;18.00;99.90
9385;DHT22;4732;49.340;10.886;2023-05-02T14:25:32;18.30;99.90
9385;DHT22;4732;49.340;10.886;2023-05-02T14:27:57;18.40;99.90
9385;DHT22;4732;49.340;10.886;2023-05-02T14:30:23;18.60;99.90
9385;DHT22;4732;49.340;10.886;2023-05-02T14:32:49;18.80;99.90
9385;DHT22;4732;49.340;10.886;2023-05-02T14:35:14;19.00;99.90
9385;DHT22;4732;49.340;10.886;2023-05-02T14:37:40;19.10;99.90
9385;DHT22;4732;49.340;10.886;2023-05-02T14:40:09;19.00;99.90
9385;DHT22;4732;49.340;10.886;2023-05-02T14:42:35;19.00;99.90
9385;DHT22;4732;49.340;10.886;2023-05-02T14:45:00;17.80;99.90
9385;DHT22;4732;49.340;10.886;2023-05-02T14:47:27;18.90;99.90
9385;DHT22;4732;49.340;10.886;2023-05-02T14:49:55;19.10;99.90
9385;DHT22;4732;49.340;10.886;2023-05-02T14:52:21;19.10;99.90
9385;DHT22;4732;49.340;10.886;2023-05-02T14:54:46;21.00;99.90
9385;DHT22;4732;49.340;10.886;2023-05-02T14:57:12;18.50;99.90
9385;DHT22;4732;49.340;10.886;2023-05-02T14:59:38;19.70;99.90
9385;DHT22;4732;49.340;10.886;2023-05-02T15:02:07;19.70;99.90
9385;DHT22;4732;49.340;10.886;2023-05-02T15:04:32;20.50;99.90
9385;DHT22;4732;49.340;10.886;2023-05-02T15:09:27;20.30;99.90
9385;DHT22;4732;49.340;10.886;2023-05-02T15:11:54;20.00;99.90
9385;DHT22;4732;49.340;10.886;2023-05-02T15:14:19;20.30;99.90
9385;DHT22;4732;49.340;10.886;2023-05-02T15:16:45;20.10;99.90
9385;DHT22;4732;49.340;10.886;2023-05-02T15:19:11;20.20;99.90
9385;DHT22;4732;49.340;10.886;2023-05-02T15:21:36;19.90;99.90
9385;DHT22;4732;49.340;10.886;2023-05-02T15:24:02;19.70;99.90
9385;DHT22;4732;49.340;10.886;2023-05-02T15:26:28;20.10;99.90
9385;DHT22;4732;49.340;10.886;2023-05-02T15:28:54;20.20;99.90
9385;DHT22;4732;49.340;10.886;2023-05-02T15:31:21;19.10;99.90
9385;DHT22;4732;49.340;10.886;2023-05-02T15:33:47;19.80;99.90
9385;DHT22;4732;49.340;10.886;2023-05-02T15:36:13;19.30;99.90
9385;DHT22;4732;49.340;10.886;2023-05-02T15:38:39;19.80;99.90
9385;DHT22;4732;49.340;10.886;2023-05-02T15:41:07;19.70;99.90
9385;DHT22;4732;49.340;10.886;2023-05-02T15:43:35;20.00;99.90
9385;DHT22;4732;49.340;10.886;2023-05-02T15:46:01;19.60;99.90
9385;DHT22;4732;49.340;10.886;2023-05-02T15:48:28;19.40;99.90
9385;DHT22;4732;49.340;10.886;2023-05-02T15:50:54;20.00;99.90
9385;DHT22;4732;49.340;10.886;2023-05-02T15:53:20;19.80;99.90
9385;DHT22;4732;49.340;10.886;2023-05-02T15:55:47;20.10;99.90
9385;DHT22;4732;49.340;10.886;2023-05-02T15:58:13;19.60;99.90
9385;DHT22;4732;49.340;10.886;2023-05-02T16:08:27;19.00;99.90
9385;DHT22;4732;49.340;10.886;2023-05-02T16:10:53;18.80;99.90
9385;DHT22;4732;49.340;10.886;2023-05-02T16:13:19;19.40;99.90
9385;DHT22;4732;49.340;10.886;2023-05-02T16:15:45;19.30;99.90
9385;DHT22;4732;49.340;10.886;2023-05-02T16:18:13;18.50;99.90
9385;DHT22;4732;49.340;10.886;2023-05-02T16:20:39;18.50;99.90
9385;DHT22;4732;49.340;10.886;2023-05-02T16:23:04;18.20;99.90
9385;DHT22;4732;49.340;10.886;2023-05-02T16:25:30;20.70;99.90
9385;DHT22;4732;49.340;10.886;2023-05-02T16:27:57;18.10;99.90
9385;DHT22;4732;49.340;10.886;2023-05-02T16:30:22;18.70;99.90
9385;DHT22;4732;49.340;10.886;2023-05-02T16:32:48;17.40;99.90
9385;DHT22;4732;49.340;10.886;2023-05-02T16:35:13;17.10;99.90
9385;DHT22;4732;49.340;10.886;2023-05-02T16:37:40;17.20;99.90
9385;DHT22;4732;49.340;10.886;2023-05-02T16:40:09;17.20;99.90
9385;DHT22;4732;49.340;10.886;2023-05-02T16:42:36;16.80;99.90
9385;DHT22;4732;49.340;10.886;2023-05-02T16:45:01;16.40;99.90
9385;DHT22;4732;49.340;10.886;2023-05-02T16:47:27;16.40;99.90
9385;DHT22;4732;49.340;10.886;2023-05-02T16:49:57;16.20;99.90
9385;DHT22;4732;49.340;10.886;2023-05-02T16:52:23;16.10;99.90
9385;DHT22;4732;49.340;10.886;2023-05-02T16:54:49;16.00;99.90
9385;DHT22;4732;49.340;10.886;2023-05-02T16:57:15;15.90;99.90
9385;DHT22;4732;49.340;10.886;2023-05-02T16:59:45;15.90;99.90
9385;DHT22;4732;49.340;10.886;2023-05-02T17:02:12;15.80;99.90
9385;DHT22;4732;49.340;10.886;2023-05-02T17:04:38;15.80;99.90
9385;DHT22;4732;49.340;10.886;2023-05-02T17:07:04;15.70;99.90
9385;DHT22;4732;49.340;10.886;2023-05-02T17:09:33;15.60;99.90
9385;DHT22;4732;49.340;10.886;2023-05-02T17:11:58;15.50;99.90
9385;DHT22;4732;49.340;10.886;2023-05-02T17:14:24;15.60;99.90
9385;DHT22;4732;49.340;10.886;2023-05-02T17:16:50;15.50;99.90
9385;DHT22;4732;49.340;10.886;2023-05-02T17:19:15;15.40;99.90
9385;DHT22;4732;49.340;10.886;2023-05-02T17:21:41;15.30;99.90
9385;DHT22;4732;49.340;10.886;2023-05-02T17:24:07;15.20;99.90
9385;DHT22;4732;49.340;10.886;2023-05-02T17:26:33;15.10;99.90
9385;DHT22;4732;49.340;10.886;2023-05-02T17:28:58;15.10;99.90
9385;DHT22;4732;49.340;10.886;2023-05-02T17:31:24;15.10;99.90
9385;DHT22;4732;49.340;10.886;2023-05-02T17:33:49;15.00;99.90
9385;DHT22;4732;49.340;10.886;2023-05-02T17:36:15;15.10;99.90
9385;DHT22;4732;49.340;10.886;2023-05-02T17:38:40;15.00;99.90
9385;DHT22;4732;49.340;10.886;2023-05-02T17:41:06;14.90;99.90
9385;DHT22;4732;49.340;10.886;2023-05-02T17:43:32;14.70;99.90
9385;DHT22;4732;49.340;10.886;2023-05-02T17:45:57;14.80;99.90
